createdAt,value
2022-12-01T00:02:24.326Z,20.85
2022-12-01T00:04:51.023Z,21.52
2022-12-01T00:07:17.566Z,18.80
2022-12-01T00:10:02.717Z,21.60
2022-12-01T00:12:29.561Z,21.83
2022-12-01T00:15:01.068Z,21.20
2022-12-01T00:17:29.250Z,21.67
2022-12-01T00:19:57.071Z,19.67
2022-12-01T00:22:23.616Z,21.35
2022-12-01T00:24:51.608Z,19.08
2022-12-01T00:27:18.278Z,21.75
2022-12-01T00:29:46.041Z,23.85
2022-12-01T00:32:13.543Z,21.25
2022-12-01T00:34:40.397Z,20.38
2022-12-01T00:37:07.099Z,20.27
2022-12-01T00:39:33.797Z,21.15
2022-12-01T00:42:00.409Z,21.38
2022-12-01T00:44:27.073Z,21.98
2022-12-01T00:46:53.669Z,24.52
2022-12-01T00:49:20.277Z,21.38
2022-12-01T00:51:46.885Z,19.98
2022-12-01T00:54:13.705Z,21.95
2022-12-01T00:56:40.304Z,23.30
2022-12-01T00:59:07.009Z,19.67
2022-12-01T01:01:34.964Z,23.38
2022-12-01T01:04:01.658Z,21.23
2022-12-01T01:06:28.326Z,21.10
2022-12-01T01:08:54.993Z,20.45
2022-12-01T01:11:21.691Z,20.92
2022-12-01T01:13:48.339Z,20.10
2022-12-01T01:16:19.418Z,21.80
2022-12-01T01:18:46.164Z,22.60
2022-12-01T01:21:14.035Z,18.80
2022-12-01T01:23:41.095Z,19.98
2022-12-01T01:26:10.681Z,19.45
2022-12-01T01:28:37.436Z,22.38
2022-12-01T01:31:11.723Z,21.48
2022-12-01T01:33:38.550Z,20.23
2022-12-01T01:36:05.416Z,21.60
2022-12-01T01:38:32.526Z,19.77
2022-12-01T01:40:59.513Z,19.45
2022-12-01T01:43:41.456Z,23.48
2022-12-01T01:46:08.640Z,19.75
2022-12-01T01:48:36.549Z,21.25
2022-12-01T01:51:03.241Z,20.15
2022-12-01T01:53:30.705Z,18.58
2022-12-01T01:55:57.676Z,20.25
2022-12-01T01:58:24.885Z,19.42
2022-12-01T02:00:51.566Z,20.73
2022-12-01T02:03:19.188Z,19.58
2022-12-01T02:05:46.277Z,19.30
2022-12-01T02:08:13.102Z,17.80
2022-12-01T02:10:58.577Z,19.55
2022-12-01T02:13:43.617Z,20.98
2022-12-01T02:16:13.786Z,18.75
2022-12-01T02:18:51.762Z,21.67
2022-12-01T02:21:25.183Z,17.55
2022-12-01T02:23:51.800Z,19.27
2022-12-01T02:26:39.338Z,24.20
2022-12-01T02:29:09.067Z,20.55
2022-12-01T02:31:45.914Z,22.92
2022-12-01T02:34:12.563Z,24.90
2022-12-01T02:36:49.205Z,21.10
2022-12-01T02:39:23.732Z,23.20
2022-12-01T02:41:52.649Z,24.27
2022-12-01T02:44:22.403Z,22.85
2022-12-01T02:46:51.792Z,24.10
2022-12-01T02:49:24.342Z,22.98
2022-12-01T02:51:51.093Z,23.92
2022-12-01T02:54:18.430Z,22.63
2022-12-01T02:56:45.613Z,22.23
2022-12-01T02:59:14.817Z,22.52
2022-12-01T03:01:57.150Z,21.17
2022-12-01T03:04:29.887Z,21.05
2022-12-01T03:07:02.645Z,20.42
2022-12-01T03:09:41.192Z,18.23
2022-12-01T03:12:10.673Z,21.65
2022-12-01T03:14:44.843Z,19.27
2022-12-01T03:17:15.352Z,23.65
2022-12-01T03:19:44.175Z,20.38
2022-12-01T03:22:13.741Z,20.08
2022-12-01T03:24:42.417Z,20.50
2022-12-01T03:27:09.873Z,19.73
2022-12-01T03:29:39.964Z,17.27
2022-12-01T03:32:19.452Z,22.08
2022-12-01T03:34:50.008Z,19.13
2022-12-01T03:37:24.765Z,19.90
2022-12-01T03:40:00.025Z,20.27
2022-12-01T03:42:30.572Z,20.65
2022-12-01T03:44:59.192Z,17.92
2022-12-01T03:47:29.401Z,23.60
2022-12-01T03:49:56.487Z,21.05
2022-12-01T03:52:28.331Z,22.42
2022-12-01T03:55:17.902Z,21.50
2022-12-01T03:57:44.505Z,24.80
2022-12-01T04:00:11.687Z,20.50
2022-12-01T04:02:41.367Z,20.42
2022-12-01T04:05:09.331Z,23.10
2022-12-01T04:07:36.870Z,22.55
2022-12-01T04:10:04.130Z,22.65
2022-12-01T04:12:30.852Z,21.23
2022-12-01T04:14:57.819Z,23.83
2022-12-01T04:17:24.857Z,20.95
2022-12-01T04:19:51.645Z,24.20
2022-12-01T04:22:18.424Z,21.27
2022-12-01T04:24:45.460Z,22.70
2022-12-01T04:27:12.311Z,22.70
2022-12-01T04:29:38.969Z,21.08
2022-12-01T04:32:05.774Z,24.67
2022-12-01T04:34:32.347Z,22.98
2022-12-01T04:36:58.951Z,22.52
2022-12-01T04:39:25.586Z,24.05
2022-12-01T04:41:52.197Z,24.70
2022-12-01T04:44:18.866Z,22.98
2022-12-01T04:46:45.591Z,23.50
2022-12-01T04:49:12.282Z,20.92
2022-12-01T04:51:38.901Z,22.25
2022-12-01T04:54:05.938Z,24.55
2022-12-01T04:56:33.553Z,22.17
2022-12-01T04:59:00.672Z,21.80
2022-12-01T05:01:27.768Z,25.73
2022-12-01T05:03:54.547Z,22.92
2022-12-01T05:06:22.687Z,25.00
2022-12-01T05:08:49.801Z,28.15
2022-12-01T05:11:17.348Z,27.95
2022-12-01T05:13:45.143Z,28.48
2022-12-01T05:16:22.490Z,24.83
2022-12-01T05:18:50.491Z,26.00
2022-12-01T05:21:17.659Z,28.88
2022-12-01T05:23:45.773Z,24.50
2022-12-01T05:26:12.379Z,26.10
2022-12-01T05:28:40.910Z,26.13
2022-12-01T05:31:07.714Z,28.05
2022-12-01T05:33:34.422Z,24.13
2022-12-01T05:36:01.116Z,25.45
2022-12-01T05:38:27.720Z,27.67
2022-12-01T05:40:55.401Z,26.90
2022-12-01T05:43:28.715Z,27.02
2022-12-01T05:45:56.842Z,29.75
2022-12-01T05:48:23.665Z,26.08
2022-12-01T05:50:50.336Z,27.77
2022-12-01T05:53:17.567Z,26.15
2022-12-01T05:55:44.444Z,27.75
2022-12-01T05:58:11.150Z,24.10
2022-12-01T06:00:45.296Z,25.70
2022-12-01T06:03:12.652Z,28.38
2022-12-01T06:05:39.603Z,26.17
2022-12-01T06:08:06.380Z,26.77
2022-12-01T06:10:33.362Z,26.45
2022-12-01T06:13:00.030Z,24.63
2022-12-01T06:15:27.196Z,27.38
2022-12-01T06:17:53.865Z,31.98
2022-12-01T06:20:20.563Z,30.67
2022-12-01T06:22:48.273Z,26.48
2022-12-01T06:25:14.986Z,28.50
2022-12-01T06:27:41.612Z,28.30
2022-12-01T06:30:08.628Z,26.08
2022-12-01T06:32:35.378Z,28.70
2022-12-01T06:35:02.427Z,27.90
2022-12-01T06:37:29.069Z,27.50
2022-12-01T06:39:55.761Z,28.55
2022-12-01T06:42:22.762Z,31.33
2022-12-01T06:44:49.561Z,31.25
2022-12-01T06:47:16.200Z,31.88
2022-12-01T06:49:42.936Z,29.40
2022-12-01T06:52:10.093Z,30.13
2022-12-01T06:54:37.602Z,30.65
2022-12-01T06:57:04.773Z,29.17
2022-12-01T06:59:31.885Z,30.27
2022-12-01T07:01:59.136Z,32.05
2022-12-01T07:04:25.797Z,30.52
2022-12-01T07:06:52.434Z,31.88
2022-12-01T07:09:19.082Z,29.02
2022-12-01T07:11:45.808Z,31.27
2022-12-01T07:14:22.256Z,32.35
2022-12-01T07:16:48.937Z,29.98
2022-12-01T07:19:15.588Z,30.98
2022-12-01T07:21:42.278Z,34.63
2022-12-01T07:24:09.112Z,31.77
2022-12-01T07:26:35.770Z,32.55
2022-12-01T07:29:02.394Z,35.72
2022-12-01T07:31:29.016Z,32.60
2022-12-01T07:33:55.836Z,36.25
2022-12-01T07:36:22.519Z,33.88
2022-12-01T07:38:49.248Z,34.33
2022-12-01T07:41:19.142Z,34.97
2022-12-01T07:43:46.005Z,32.97
2022-12-01T07:46:23.272Z,31.80
2022-12-01T07:48:50.900Z,33.03
2022-12-01T07:51:17.776Z,32.63
2022-12-01T07:53:45.282Z,34.38
2022-12-01T07:56:11.862Z,36.38
2022-12-01T07:58:38.709Z,36.67
2022-12-01T08:01:06.549Z,32.38
2022-12-01T08:03:33.333Z,35.33
2022-12-01T08:06:00.777Z,34.92
2022-12-01T08:08:27.460Z,31.83
2022-12-01T08:10:54.067Z,31.00
2022-12-01T08:13:23.573Z,35.25
2022-12-01T08:15:50.244Z,35.90
2022-12-01T08:18:16.912Z,36.60
2022-12-01T08:20:43.536Z,32.88
2022-12-01T08:23:10.838Z,33.47
2022-12-01T08:25:42.055Z,36.35
2022-12-01T08:28:08.919Z,33.97
2022-12-01T08:30:36.022Z,33.50
2022-12-01T08:33:03.006Z,38.10
2022-12-01T08:35:29.699Z,34.53
2022-12-01T08:37:56.386Z,36.13
2022-12-01T08:40:23.095Z,36.20
2022-12-01T08:42:51.842Z,36.13
2022-12-01T08:45:18.650Z,39.10
2022-12-01T08:47:45.390Z,36.15
2022-12-01T08:50:12.125Z,33.60
2022-12-01T08:52:38.970Z,34.55
2022-12-01T08:55:05.932Z,33.67
2022-12-01T08:57:32.566Z,36.42
2022-12-01T08:59:59.208Z,37.15
2022-12-01T09:02:26.027Z,37.72
2022-12-01T09:04:52.705Z,35.75
2022-12-01T09:07:25.878Z,34.88
2022-12-01T09:09:52.992Z,35.92
2022-12-01T09:12:19.809Z,34.10
2022-12-01T09:14:48.396Z,34.10
2022-12-01T09:17:16.157Z,35.25
2022-12-01T09:19:43.352Z,35.88
2022-12-01T09:22:10.352Z,34.78
2022-12-01T09:24:37.141Z,33.17
2022-12-01T09:27:03.955Z,37.25
2022-12-01T09:29:30.704Z,35.25
2022-12-01T09:31:58.252Z,37.28
2022-12-01T09:34:26.055Z,35.88
2022-12-01T09:36:55.056Z,34.42
2022-12-01T09:39:21.772Z,34.60
2022-12-01T09:41:59.626Z,32.97
2022-12-01T09:44:26.308Z,31.48
2022-12-01T09:46:54.875Z,32.38
2022-12-01T09:49:26.572Z,33.78
2022-12-01T09:51:54.336Z,36.35
2022-12-01T09:54:21.118Z,31.50
2022-12-01T09:56:50.305Z,31.88
2022-12-01T09:59:22.509Z,35.63
2022-12-01T10:01:56.131Z,33.58
2022-12-01T10:04:27.448Z,32.88
2022-12-01T10:06:54.134Z,34.65
2022-12-01T10:09:20.735Z,31.17
2022-12-01T10:11:48.294Z,31.92
2022-12-01T10:14:20.119Z,33.83
2022-12-01T10:16:53.257Z,32.15
2022-12-01T10:19:25.980Z,36.10
2022-12-01T10:22:00.919Z,31.05
2022-12-01T10:24:27.555Z,34.83
2022-12-01T10:27:12.395Z,32.80
2022-12-01T10:29:38.973Z,32.15
2022-12-01T10:32:10.962Z,31.52
2022-12-01T10:34:39.182Z,35.88
2022-12-01T10:37:06.569Z,30.83
2022-12-01T10:39:44.178Z,33.47
2022-12-01T10:42:13.903Z,30.77
2022-12-01T10:44:40.594Z,30.58
2022-12-01T10:47:17.196Z,30.52
2022-12-01T10:49:43.967Z,34.03
2022-12-01T10:52:29.638Z,32.83
2022-12-01T10:54:56.282Z,32.42
2022-12-01T10:57:23.225Z,32.80
2022-12-01T10:59:55.764Z,33.67
2022-12-01T11:02:23.821Z,28.52
2022-12-01T11:05:07.215Z,29.58
2022-12-01T11:07:35.241Z,27.05
2022-12-01T11:10:15.148Z,31.15
2022-12-01T11:12:42.885Z,28.58
2022-12-01T11:15:18.736Z,27.15
2022-12-01T11:17:45.442Z,28.27
2022-12-01T11:20:27.534Z,31.63
2022-12-01T11:23:14.296Z,32.03
2022-12-01T11:25:41.356Z,26.75
2022-12-01T11:28:20.130Z,27.58
2022-12-01T11:30:46.768Z,27.05
2022-12-01T11:33:15.018Z,28.98
2022-12-01T11:35:46.385Z,29.45
2022-12-01T11:38:30.665Z,29.50
2022-12-01T11:40:58.068Z,27.77
2022-12-01T11:43:27.362Z,33.72
2022-12-01T11:45:55.384Z,29.67
2022-12-01T11:48:26.259Z,28.90
2022-12-01T11:51:04.123Z,30.08
2022-12-01T11:53:41.292Z,32.30
2022-12-01T11:56:16.744Z,30.08
2022-12-01T11:58:44.425Z,28.70
2022-12-01T12:01:27.133Z,26.52
2022-12-01T12:04:14.033Z,30.25
2022-12-01T12:07:03.783Z,29.25
2022-12-01T12:09:46.000Z,28.58
2022-12-01T12:12:27.303Z,28.58
2022-12-01T12:14:54.027Z,28.00
2022-12-01T12:17:20.827Z,27.45
2022-12-01T12:20:09.619Z,28.30
2022-12-01T12:22:39.580Z,29.58
2022-12-01T12:25:21.518Z,25.73
2022-12-01T12:27:51.237Z,28.80
2022-12-01T12:30:28.007Z,27.20
2022-12-01T12:33:13.445Z,25.10
2022-12-01T12:35:43.172Z,27.48
2022-12-01T12:38:28.285Z,25.45
2022-12-01T12:40:57.711Z,26.10
2022-12-01T12:43:30.402Z,23.98
2022-12-01T12:46:02.261Z,27.88
2022-12-01T12:48:41.691Z,24.40
2022-12-01T12:51:24.559Z,25.20
2022-12-01T12:54:05.482Z,28.52
2022-12-01T12:56:33.096Z,25.38
2022-12-01T12:59:11.572Z,24.63
2022-12-01T13:01:43.122Z,22.85
2022-12-01T13:04:20.438Z,23.25
2022-12-01T13:06:59.050Z,24.83
2022-12-01T13:09:31.664Z,22.95
2022-12-01T13:12:09.821Z,23.30
2022-12-01T13:14:39.326Z,24.33
2022-12-01T13:17:14.795Z,24.05
2022-12-01T13:19:43.162Z,22.85
2022-12-01T13:22:13.703Z,25.75
2022-12-01T13:24:40.757Z,25.40
2022-12-01T13:27:10.274Z,19.88
2022-12-01T13:29:43.736Z,22.35
2022-12-01T13:32:25.997Z,20.75
2022-12-01T13:34:52.942Z,27.25
2022-12-01T13:37:45.886Z,22.88
2022-12-01T13:40:21.894Z,23.95
2022-12-01T13:43:15.579Z,23.23
2022-12-01T13:45:42.342Z,23.73
2022-12-01T13:48:27.758Z,21.92
2022-12-01T13:51:04.111Z,24.45
2022-12-01T13:53:32.323Z,24.83
2022-12-01T13:55:58.973Z,23.85
2022-12-01T13:58:40.176Z,21.67
2022-12-01T14:01:22.832Z,24.05
2022-12-01T14:03:53.981Z,21.88
2022-12-01T14:06:26.589Z,22.48
2022-12-01T14:09:16.355Z,23.35
2022-12-01T14:11:54.476Z,22.40
2022-12-01T14:14:26.162Z,20.98
2022-12-01T14:16:54.215Z,22.75
2022-12-01T14:19:34.526Z,20.67
2022-12-01T14:22:01.645Z,22.67
2022-12-01T14:24:34.794Z,25.80
2022-12-01T14:27:02.347Z,21.98
2022-12-01T14:29:30.914Z,22.15
2022-12-01T14:32:00.584Z,23.10
2022-12-01T14:34:30.108Z,20.13
2022-12-01T14:37:06.044Z,22.77
2022-12-01T14:39:34.456Z,23.10
2022-12-01T14:42:11.891Z,22.63
2022-12-01T14:44:47.851Z,19.42
2022-12-01T14:47:27.713Z,19.83
2022-12-01T14:50:12.328Z,21.60
2022-12-01T14:52:42.315Z,23.25
2022-12-01T14:55:16.551Z,18.58
2022-12-01T14:57:45.603Z,22.15
2022-12-01T15:00:17.127Z,23.40
2022-12-01T15:02:48.986Z,22.55
2022-12-01T15:05:17.654Z,21.70
2022-12-01T15:07:47.581Z,21.63
2022-12-01T15:10:22.168Z,21.52
2022-12-01T15:12:49.214Z,23.13
2022-12-01T15:15:23.953Z,21.75
2022-12-01T15:17:51.683Z,21.25
2022-12-01T15:20:27.411Z,25.08
2022-12-01T15:22:54.531Z,21.90
2022-12-01T15:25:21.352Z,23.25
2022-12-01T15:28:01.125Z,20.55
2022-12-01T15:30:27.859Z,23.33
2022-12-01T15:32:54.533Z,20.45
2022-12-01T15:35:22.564Z,22.10
2022-12-01T15:37:50.032Z,21.27
2022-12-01T15:43:06.408Z,22.35
2022-12-01T15:45:42.179Z,27.02
2022-12-01T15:48:24.858Z,26.17
2022-12-01T15:51:03.071Z,22.33
2022-12-01T15:53:33.178Z,23.10
2022-12-01T15:56:01.478Z,25.48
2022-12-01T15:58:32.040Z,24.67
2022-12-01T16:01:00.079Z,21.52
2022-12-01T16:03:27.241Z,22.50
2022-12-01T16:05:54.390Z,24.42
2022-12-01T16:08:22.877Z,29.30
2022-12-01T16:11:08.013Z,24.33
2022-12-01T16:13:49.776Z,26.13
2022-12-01T16:16:30.925Z,24.05
2022-12-01T16:18:59.378Z,23.05
2022-12-01T16:21:26.391Z,20.83
2022-12-01T16:24:03.692Z,23.27
2022-12-01T16:26:31.215Z,24.05
2022-12-01T16:28:58.416Z,22.13
2022-12-01T16:31:25.869Z,27.50
2022-12-01T16:34:14.011Z,28.63
2022-12-01T16:36:50.189Z,26.38
2022-12-01T16:39:16.848Z,30.15
2022-12-01T16:41:44.836Z,28.27
2022-12-01T16:44:28.006Z,27.33
2022-12-01T16:46:55.378Z,29.17
2022-12-01T16:49:22.116Z,26.25
2022-12-01T16:51:57.185Z,27.48
2022-12-01T16:54:24.323Z,26.77
2022-12-01T16:56:51.329Z,28.02
2022-12-01T16:59:18.017Z,26.45
2022-12-01T17:01:44.717Z,24.63
2022-12-01T17:04:11.502Z,27.42
2022-12-01T17:06:38.477Z,28.85
2022-12-01T17:09:05.741Z,29.38
2022-12-01T17:11:32.552Z,29.40
2022-12-01T17:13:59.178Z,28.27
2022-12-01T17:16:25.885Z,28.25
2022-12-01T17:18:52.660Z,27.85
2022-12-01T17:21:19.335Z,32.83
2022-12-01T17:23:46.117Z,28.90
2022-12-01T17:26:14.126Z,25.75
2022-12-01T17:28:40.847Z,29.73
2022-12-01T17:31:07.898Z,28.13
2022-12-01T17:33:35.208Z,27.45
2022-12-01T17:36:03.789Z,29.17
2022-12-01T17:38:30.518Z,29.52
2022-12-01T17:41:00.676Z,30.25
2022-12-01T17:43:27.775Z,27.98
2022-12-01T17:45:54.444Z,29.63
2022-12-01T17:48:21.051Z,27.25
2022-12-01T17:50:47.759Z,29.70
2022-12-01T17:53:14.477Z,30.98
2022-12-01T17:55:41.179Z,30.20
2022-12-01T17:58:07.900Z,28.13
2022-12-01T18:00:34.580Z,28.02
2022-12-01T18:03:01.205Z,25.48
2022-12-01T18:05:29.402Z,29.30
2022-12-01T18:07:56.211Z,26.90
2022-12-01T18:10:22.873Z,27.92
2022-12-01T18:12:49.698Z,26.98
2022-12-01T18:15:17.442Z,24.85
2022-12-01T18:17:44.937Z,24.92
2022-12-01T18:20:11.775Z,25.88
2022-12-01T18:22:38.472Z,25.92
2022-12-01T18:25:05.294Z,27.48
2022-12-01T18:27:31.894Z,23.63
2022-12-01T18:29:58.523Z,24.45
2022-12-01T18:32:25.229Z,28.63
2022-12-01T18:34:52.284Z,24.13
2022-12-01T18:37:19.158Z,22.60
2022-12-01T18:39:46.153Z,21.33
2022-12-01T18:42:12.830Z,23.17
2022-12-01T18:44:39.460Z,24.00
2022-12-01T18:47:06.641Z,23.50
2022-12-01T18:49:33.378Z,26.42
2022-12-01T18:52:00.379Z,19.35
2022-12-01T18:54:27.030Z,24.50
2022-12-01T18:56:55.096Z,22.67
2022-12-01T18:59:21.820Z,23.35
2022-12-01T19:01:48.701Z,20.08
2022-12-01T19:04:15.840Z,18.20
2022-12-01T19:06:43.427Z,19.40
2022-12-01T19:09:11.512Z,18.42
2022-12-01T19:11:40.383Z,16.55
2022-12-01T19:14:08.491Z,18.77
2022-12-01T19:16:35.305Z,20.02
2022-12-01T19:19:02.126Z,17.58
2022-12-01T19:21:28.874Z,19.23
2022-12-01T19:23:56.443Z,17.95
2022-12-01T19:26:23.138Z,17.92
2022-12-01T19:28:49.888Z,17.75
2022-12-01T19:31:18.417Z,24.52
2022-12-01T19:33:45.755Z,16.48
2022-12-01T19:36:13.578Z,19.50
2022-12-01T19:38:40.604Z,15.60
2022-12-01T19:41:07.887Z,16.55
2022-12-01T19:43:34.965Z,16.00
2022-12-01T19:46:08.736Z,19.42
2022-12-01T19:48:35.683Z,15.80
2022-12-01T19:51:02.859Z,17.58
2022-12-01T19:53:33.550Z,16.92
2022-12-01T19:56:02.093Z,17.90
2022-12-01T19:58:28.813Z,19.05
2022-12-01T20:00:55.585Z,15.13
2022-12-01T20:03:22.230Z,16.92
2022-12-01T20:05:48.884Z,16.40
2022-12-01T20:08:15.487Z,16.92
2022-12-01T20:10:48.601Z,15.65
2022-12-01T20:13:15.234Z,17.30
2022-12-01T20:15:42.092Z,17.77
2022-12-01T20:18:08.891Z,14.10
2022-12-01T20:20:35.618Z,15.60
2022-12-01T20:23:02.298Z,17.30
2022-12-01T20:25:29.241Z,15.50
2022-12-01T20:27:55.847Z,14.73
2022-12-01T20:30:22.499Z,18.45
2022-12-01T20:32:49.099Z,17.95
2022-12-01T20:35:15.852Z,19.35
2022-12-01T20:37:42.464Z,17.02
2022-12-01T20:40:09.406Z,17.25
2022-12-01T20:42:39.631Z,19.55
2022-12-01T20:45:06.779Z,20.17
2022-12-01T20:47:36.635Z,17.52
2022-12-01T20:50:05.024Z,18.10
2022-12-01T20:52:31.684Z,17.83
2022-12-01T20:54:58.310Z,17.85
2022-12-01T20:57:24.941Z,20.00
2022-12-01T20:59:51.524Z,15.88
2022-12-01T21:02:18.260Z,18.88
2022-12-01T21:04:44.925Z,19.52
2022-12-01T21:07:11.654Z,20.60
2022-12-01T21:09:38.537Z,20.15
2022-12-01T21:12:29.829Z,20.77
2022-12-01T21:15:16.661Z,17.52
2022-12-01T21:18:03.586Z,17.95
2022-12-01T21:20:31.717Z,17.98
2022-12-01T21:23:02.552Z,19.90
2022-12-01T21:25:29.237Z,19.30
2022-12-01T21:27:58.098Z,19.17
2022-12-01T21:30:29.938Z,19.15
2022-12-01T21:33:08.955Z,19.85
2022-12-01T21:35:35.575Z,21.95
2022-12-01T21:38:04.435Z,20.15
2022-12-01T21:40:31.089Z,22.23
2022-12-01T21:43:01.503Z,22.45
2022-12-01T21:45:29.087Z,20.23
2022-12-01T21:47:59.865Z,22.48
2022-12-01T21:50:27.322Z,21.98
2022-12-01T21:52:53.978Z,23.67
2022-12-01T21:55:20.617Z,21.90
2022-12-01T21:57:48.394Z,20.48
2022-12-01T22:00:27.219Z,24.13
2022-12-01T22:03:09.982Z,24.55
2022-12-01T22:05:41.918Z,27.10
2022-12-01T22:08:14.667Z,22.15
2022-12-01T22:10:50.115Z,25.23
2022-12-01T22:13:16.713Z,23.63
2022-12-01T22:15:43.371Z,21.70
2022-12-01T22:18:19.764Z,24.98
2022-12-01T22:20:46.329Z,24.70
2022-12-01T22:23:13.376Z,24.85
2022-12-01T22:25:41.136Z,24.70
2022-12-01T22:28:15.201Z,24.48
2022-12-01T22:30:42.072Z,18.90
2022-12-01T22:33:35.148Z,22.27
2022-12-01T22:36:01.734Z,18.58
2022-12-01T22:38:28.300Z,19.30
2022-12-01T22:41:02.707Z,18.88
2022-12-01T22:43:32.238Z,18.67
2022-12-01T22:46:17.943Z,22.60
2022-12-01T22:48:44.639Z,18.85
2022-12-01T22:51:14.476Z,21.92
2022-12-01T22:53:41.811Z,19.48
2022-12-01T22:56:20.625Z,19.92
2022-12-01T22:58:47.430Z,21.80
2022-12-01T23:01:22.560Z,19.30
2022-12-01T23:03:49.418Z,18.77
2022-12-01T23:06:34.953Z,20.38
2022-12-01T23:09:01.856Z,20.55
2022-12-01T23:11:28.627Z,19.77
2022-12-01T23:13:55.260Z,19.75
2022-12-01T23:16:21.887Z,20.35
2022-12-01T23:18:48.529Z,18.90
2022-12-01T23:21:15.676Z,21.63
2022-12-01T23:23:42.320Z,19.90
2022-12-01T23:26:09.104Z,20.58
2022-12-01T23:28:36.926Z,20.92
2022-12-01T23:31:03.638Z,18.83
2022-12-01T23:33:32.059Z,20.90
2022-12-01T23:36:06.652Z,20.35
2022-12-01T23:38:38.614Z,20.70
2022-12-01T23:41:06.325Z,26.85
2022-12-01T23:43:34.795Z,24.50
2022-12-01T23:46:07.531Z,24.70
2022-12-01T23:48:37.316Z,24.98
2022-12-01T23:51:04.321Z,24.23
2022-12-01T23:53:32.514Z,26.58
2022-12-01T23:56:05.290Z,26.48
2022-12-01T23:58:32.228Z,24.83
